sensor_id;sensor_type;location;lat;lon;timestamp;P1;durP1;ratioP1;P2;durP2;ratioP2
48897;SDS011;34713;50.038;20.000;2023-08-06T00:04:04;18.80;;;16.00;;
48897;SDS011;34713;50.038;20.000;2023-08-06T00:13:47;22.40;;;19.90;;
48897;SDS011;34713;50.038;20.000;2023-08-06T00:20:06;29.00;;;21.00;;
48897;SDS011;34713;50.038;20.000;2023-08-06T00:23:34;25.90;;;19.80;;
48897;SDS011;34713;50.038;20.000;2023-08-06T00:30:01;26.50;;;19.60;;
48897;SDS011;34713;50.038;20.000;2023-08-06T00:42:43;21.60;;;16.30;;
48897;SDS011;34713;50.038;20.000;2023-08-06T01:02:28;21.90;;;14.70;;
48897;SDS011;34713;50.038;20.000;2023-08-06T01:04:54;17.80;;;13.60;;
48897;SDS011;34713;50.038;20.000;2023-08-06T01:31:21;19.10;;;17.10;;
48897;SDS011;34713;50.038;20.000;2023-08-06T01:37:57;20.70;;;16.80;;
48897;SDS011;34713;50.038;20.000;2023-08-06T01:40:55;24.20;;;19.10;;
48897;SDS011;34713;50.038;20.000;2023-08-06T01:47:27;27.70;;;19.90;;
48897;SDS011;34713;50.038;20.000;2023-08-06T01:53:47;27.80;;;19.60;;
48897;SDS011;34713;50.038;20.000;2023-08-06T02:06:42;16.60;;;14.40;;
48897;SDS011;34713;50.038;20.000;2023-08-06T02:16:02;18.00;;;14.40;;
48897;SDS011;34713;50.038;20.000;2023-08-06T02:22:58;17.80;;;13.80;;
48897;SDS011;34713;50.038;20.000;2023-08-06T02:32:13;17.30;;;14.20;;
48897;SDS011;34713;50.038;20.000;2023-08-06T02:34:40;16.40;;;13.10;;
48897;SDS011;34713;50.038;20.000;2023-08-06T02:37:06;16.40;;;14.00;;
48897;SDS011;34713;50.038;20.000;2023-08-06T02:39:33;16.50;;;13.90;;
48897;SDS011;34713;50.038;20.000;2023-08-06T02:42:00;15.70;;;12.20;;
48897;SDS011;34713;50.038;20.000;2023-08-06T02:44:27;16.50;;;14.30;;
48897;SDS011;34713;50.038;20.000;2023-08-06T02:46:54;17.30;;;13.50;;
48897;SDS011;34713;50.038;20.000;2023-08-06T02:49:20;18.40;;;14.80;;
48897;SDS011;34713;50.038;20.000;2023-08-06T02:51:47;17.50;;;13.90;;
48897;SDS011;34713;50.038;20.000;2023-08-06T02:54:14;14.30;;;12.50;;
48897;SDS011;34713;50.038;20.000;2023-08-06T02:56:42;17.40;;;13.20;;
48897;SDS011;34713;50.038;20.000;2023-08-06T02:59:11;14.60;;;11.70;;
48897;SDS011;34713;50.038;20.000;2023-08-06T03:01:38;15.60;;;12.70;;
48897;SDS011;34713;50.038;20.000;2023-08-06T03:04:05;14.80;;;12.20;;
48897;SDS011;34713;50.038;20.000;2023-08-06T03:06:32;16.10;;;12.70;;
48897;SDS011;34713;50.038;20.000;2023-08-06T03:08:58;16.50;;;13.30;;
48897;SDS011;34713;50.038;20.000;2023-08-06T03:11:25;14.10;;;12.60;;
48897;SDS011;34713;50.038;20.000;2023-08-06T03:13:51;15.80;;;12.80;;
48897;SDS011;34713;50.038;20.000;2023-08-06T03:16:18;17.30;;;13.10;;
48897;SDS011;34713;50.038;20.000;2023-08-06T03:18:44;18.80;;;13.20;;
48897;SDS011;34713;50.038;20.000;2023-08-06T03:21:11;14.40;;;11.60;;
48897;SDS011;34713;50.038;20.000;2023-08-06T03:23:38;16.70;;;12.70;;
48897;SDS011;34713;50.038;20.000;2023-08-06T03:26:04;13.80;;;11.80;;
48897;SDS011;34713;50.038;20.000;2023-08-06T03:28:31;17.00;;;12.10;;
48897;SDS011;34713;50.038;20.000;2023-08-06T03:31:01;27.40;;;15.10;;
48897;SDS011;34713;50.038;20.000;2023-08-06T03:33:28;17.30;;;14.50;;
48897;SDS011;34713;50.038;20.000;2023-08-06T03:35:55;17.60;;;15.00;;
48897;SDS011;34713;50.038;20.000;2023-08-06T03:38:21;20.40;;;17.30;;
48897;SDS011;34713;50.038;20.000;2023-08-06T03:40:49;29.80;;;18.00;;
48897;SDS011;34713;50.038;20.000;2023-08-06T03:43:15;19.00;;;15.00;;
48897;SDS011;34713;50.038;20.000;2023-08-06T03:45:42;17.20;;;14.80;;
48897;SDS011;34713;50.038;20.000;2023-08-06T03:48:09;17.10;;;14.90;;
48897;SDS011;34713;50.038;20.000;2023-08-06T03:50:35;16.30;;;14.00;;
48897;SDS011;34713;50.038;20.000;2023-08-06T03:53:02;19.10;;;14.40;;
48897;SDS011;34713;50.038;20.000;2023-08-06T03:55:28;18.80;;;13.60;;
48897;SDS011;34713;50.038;20.000;2023-08-06T03:57:55;20.50;;;13.90;;
48897;SDS011;34713;50.038;20.000;2023-08-06T04:00:22;23.40;;;15.10;;
48897;SDS011;34713;50.038;20.000;2023-08-06T04:02:48;17.00;;;14.20;;
48897;SDS011;34713;50.038;20.000;2023-08-06T04:05:16;15.50;;;13.30;;
48897;SDS011;34713;50.038;20.000;2023-08-06T04:07:43;16.40;;;12.10;;
48897;SDS011;34713;50.038;20.000;2023-08-06T04:10:10;16.60;;;12.60;;
48897;SDS011;34713;50.038;20.000;2023-08-06T04:12:37;14.30;;;11.60;;
48897;SDS011;34713;50.038;20.000;2023-08-06T04:15:05;13.80;;;11.30;;
48897;SDS011;34713;50.038;20.000;2023-08-06T04:17:32;13.20;;;11.10;;
48897;SDS011;34713;50.038;20.000;2023-08-06T04:19:59;14.30;;;11.50;;
48897;SDS011;34713;50.038;20.000;2023-08-06T04:22:26;13.50;;;11.00;;
48897;SDS011;34713;50.038;20.000;2023-08-06T04:24:53;13.60;;;10.90;;
48897;SDS011;34713;50.038;20.000;2023-08-06T04:27:19;14.00;;;10.70;;
48897;SDS011;34713;50.038;20.000;2023-08-06T04:29:46;12.50;;;10.70;;
48897;SDS011;34713;50.038;20.000;2023-08-06T04:32:13;13.00;;;10.50;;
48897;SDS011;34713;50.038;20.000;2023-08-06T04:34:39;12.20;;;10.80;;
48897;SDS011;34713;50.038;20.000;2023-08-06T04:37:06;15.20;;;11.60;;
48897;SDS011;34713;50.038;20.000;2023-08-06T04:39:33;21.20;;;12.40;;
48897;SDS011;34713;50.038;20.000;2023-08-06T04:41:59;14.20;;;11.40;;
48897;SDS011;34713;50.038;20.000;2023-08-06T04:44:26;15.00;;;10.60;;
48897;SDS011;34713;50.038;20.000;2023-08-06T04:46:53;13.50;;;11.20;;
48897;SDS011;34713;50.038;20.000;2023-08-06T04:49:23;12.30;;;10.70;;
48897;SDS011;34713;50.038;20.000;2023-08-06T04:51:49;16.70;;;10.70;;
48897;SDS011;34713;50.038;20.000;2023-08-06T04:54:16;13.30;;;10.60;;
48897;SDS011;34713;50.038;20.000;2023-08-06T04:56:43;13.00;;;11.40;;
48897;SDS011;34713;50.038;20.000;2023-08-06T04:59:09;13.90;;;11.00;;
48897;SDS011;34713;50.038;20.000;2023-08-06T05:01:36;19.20;;;12.60;;
48897;SDS011;34713;50.038;20.000;2023-08-06T05:04:03;18.60;;;13.90;;
48897;SDS011;34713;50.038;20.000;2023-08-06T05:06:29;21.00;;;14.90;;
48897;SDS011;34713;50.038;20.000;2023-08-06T05:08:56;18.00;;;13.00;;
48897;SDS011;34713;50.038;20.000;2023-08-06T05:11:23;19.30;;;13.20;;
48897;SDS011;34713;50.038;20.000;2023-08-06T05:13:50;17.40;;;12.50;;
48897;SDS011;34713;50.038;20.000;2023-08-06T05:16:17;14.40;;;11.20;;
48897;SDS011;34713;50.038;20.000;2023-08-06T05:18:43;16.40;;;12.20;;
48897;SDS011;34713;50.038;20.000;2023-08-06T05:21:10;15.60;;;11.60;;
48897;SDS011;34713;50.038;20.000;2023-08-06T05:23:37;15.80;;;11.60;;
48897;SDS011;34713;50.038;20.000;2023-08-06T05:26:03;17.60;;;12.30;;
48897;SDS011;34713;50.038;20.000;2023-08-06T05:28:30;29.30;;;13.30;;
48897;SDS011;34713;50.038;20.000;2023-08-06T05:30:57;15.70;;;11.10;;
48897;SDS011;34713;50.038;20.000;2023-08-06T05:33:23;16.00;;;11.30;;
48897;SDS011;34713;50.038;20.000;2023-08-06T05:35:50;15.10;;;10.80;;
48897;SDS011;34713;50.038;20.000;2023-08-06T05:38:17;14.90;;;10.50;;
48897;SDS011;34713;50.038;20.000;2023-08-06T05:40:43;13.80;;;9.40;;
48897;SDS011;34713;50.038;20.000;2023-08-06T05:43:10;14.40;;;10.20;;
48897;SDS011;34713;50.038;20.000;2023-08-06T05:45:37;13.00;;;9.50;;
48897;SDS011;34713;50.038;20.000;2023-08-06T05:48:03;17.40;;;11.50;;
48897;SDS011;34713;50.038;20.000;2023-08-06T05:50:30;16.90;;;12.60;;
48897;SDS011;34713;50.038;20.000;2023-08-06T05:52:57;15.80;;;12.70;;
48897;SDS011;34713;50.038;20.000;2023-08-06T05:55:23;19.00;;;13.10;;
48897;SDS011;34713;50.038;20.000;2023-08-06T05:57:50;20.40;;;12.90;;
48897;SDS011;34713;50.038;20.000;2023-08-06T06:00:18;15.90;;;12.90;;
48897;SDS011;34713;50.038;20.000;2023-08-06T06:02:45;15.40;;;12.80;;
48897;SDS011;34713;50.038;20.000;2023-08-06T06:05:12;18.00;;;13.80;;
48897;SDS011;34713;50.038;20.000;2023-08-06T06:07:38;17.40;;;11.70;;
48897;SDS011;34713;50.038;20.000;2023-08-06T06:10:05;14.60;;;11.50;;
48897;SDS011;34713;50.038;20.000;2023-08-06T06:12:32;14.40;;;11.40;;
48897;SDS011;34713;50.038;20.000;2023-08-06T06:14:59;17.50;;;11.70;;
48897;SDS011;34713;50.038;20.000;2023-08-06T06:17:27;14.70;;;10.70;;
48897;SDS011;34713;50.038;20.000;2023-08-06T06:19:55;15.10;;;11.90;;
48897;SDS011;34713;50.038;20.000;2023-08-06T06:22:21;14.50;;;12.20;;
48897;SDS011;34713;50.038;20.000;2023-08-06T06:24:48;15.00;;;12.70;;
48897;SDS011;34713;50.038;20.000;2023-08-06T06:27:15;15.90;;;12.60;;
48897;SDS011;34713;50.038;20.000;2023-08-06T06:29:41;16.20;;;13.70;;
48897;SDS011;34713;50.038;20.000;2023-08-06T06:32:08;17.90;;;13.80;;
48897;SDS011;34713;50.038;20.000;2023-08-06T06:34:34;16.20;;;12.80;;
48897;SDS011;34713;50.038;20.000;2023-08-06T06:37:01;15.80;;;13.40;;
48897;SDS011;34713;50.038;20.000;2023-08-06T06:39:27;13.70;;;11.50;;
48897;SDS011;34713;50.038;20.000;2023-08-06T06:41:54;13.30;;;10.90;;
48897;SDS011;34713;50.038;20.000;2023-08-06T06:44:21;14.00;;;11.80;;
48897;SDS011;34713;50.038;20.000;2023-08-06T06:46:47;12.00;;;10.50;;
48897;SDS011;34713;50.038;20.000;2023-08-06T06:49:14;12.30;;;10.20;;
48897;SDS011;34713;50.038;20.000;2023-08-06T06:51:40;12.50;;;10.50;;
48897;SDS011;34713;50.038;20.000;2023-08-06T06:54:07;15.70;;;11.50;;
48897;SDS011;34713;50.038;20.000;2023-08-06T06:56:34;16.20;;;12.10;;
48897;SDS011;34713;50.038;20.000;2023-08-06T06:59:00;15.10;;;13.00;;
48897;SDS011;34713;50.038;20.000;2023-08-06T07:01:27;20.60;;;13.50;;
48897;SDS011;34713;50.038;20.000;2023-08-06T07:03:56;18.50;;;14.10;;
48897;SDS011;34713;50.038;20.000;2023-08-06T07:06:23;22.30;;;14.40;;
48897;SDS011;34713;50.038;20.000;2023-08-06T07:08:50;19.00;;;13.90;;
48897;SDS011;34713;50.038;20.000;2023-08-06T07:11:16;21.80;;;14.20;;
48897;SDS011;34713;50.038;20.000;2023-08-06T07:13:43;22.00;;;14.50;;
48897;SDS011;34713;50.038;20.000;2023-08-06T07:16:10;20.60;;;14.50;;
48897;SDS011;34713;50.038;20.000;2023-08-06T07:18:36;20.60;;;14.40;;
48897;SDS011;34713;50.038;20.000;2023-08-06T07:21:03;20.20;;;13.90;;
48897;SDS011;34713;50.038;20.000;2023-08-06T07:23:29;22.70;;;15.50;;
48897;SDS011;34713;50.038;20.000;2023-08-06T07:25:56;22.60;;;15.30;;
48897;SDS011;34713;50.038;20.000;2023-08-06T07:28:23;21.00;;;12.30;;
48897;SDS011;34713;50.038;20.000;2023-08-06T07:30:49;17.20;;;12.60;;
48897;SDS011;34713;50.038;20.000;2023-08-06T07:33:16;13.70;;;10.90;;
48897;SDS011;34713;50.038;20.000;2023-08-06T07:35:43;12.00;;;9.40;;
48897;SDS011;34713;50.038;20.000;2023-08-06T07:38:09;12.00;;;8.80;;
48897;SDS011;34713;50.038;20.000;2023-08-06T07:40:36;10.20;;;8.40;;
48897;SDS011;34713;50.038;20.000;2023-08-06T07:43:03;9.80;;;8.00;;
48897;SDS011;34713;50.038;20.000;2023-08-06T07:45:33;9.40;;;7.40;;
48897;SDS011;34713;50.038;20.000;2023-08-06T07:48:01;10.40;;;7.90;;
48897;SDS011;34713;50.038;20.000;2023-08-06T07:50:29;6.20;;;5.30;;
48897;SDS011;34713;50.038;20.000;2023-08-06T07:52:55;2.40;;;2.00;;
48897;SDS011;34713;50.038;20.000;2023-08-06T07:55:22;2.30;;;1.00;;
48897;SDS011;34713;50.038;20.000;2023-08-06T07:57:49;1.10;;;0.80;;
48897;SDS011;34713;50.038;20.000;2023-08-06T08:00:15;1.30;;;0.60;;
48897;SDS011;34713;50.038;20.000;2023-08-06T08:02:42;1.20;;;0.50;;
48897;SDS011;34713;50.038;20.000;2023-08-06T08:05:09;0.80;;;0.40;;
48897;SDS011;34713;50.038;20.000;2023-08-06T08:07:35;1.90;;;0.40;;
48897;SDS011;34713;50.038;20.000;2023-08-06T08:10:02;2.90;;;0.40;;
48897;SDS011;34713;50.038;20.000;2023-08-06T08:12:31;0.50;;;0.30;;
48897;SDS011;34713;50.038;20.000;2023-08-06T08:14:58;1.50;;;0.70;;
48897;SDS011;34713;50.038;20.000;2023-08-06T08:17:24;1.00;;;0.30;;
48897;SDS011;34713;50.038;20.000;2023-08-06T08:19:51;0.70;;;0.30;;
48897;SDS011;34713;50.038;20.000;2023-08-06T08:22:18;1.50;;;0.30;;
48897;SDS011;34713;50.038;20.000;2023-08-06T08:24:44;3.80;;;0.50;;
48897;SDS011;34713;50.038;20.000;2023-08-06T08:27:11;0.80;;;0.30;;
48897;SDS011;34713;50.038;20.000;2023-08-06T08:29:37;0.90;;;0.30;;
48897;SDS011;34713;50.038;20.000;2023-08-06T08:32:04;0.40;;;0.40;;
48897;SDS011;34713;50.038;20.000;2023-08-06T08:34:32;0.80;;;0.50;;
48897;SDS011;34713;50.038;20.000;2023-08-06T08:36:58;0.80;;;0.30;;
48897;SDS011;34713;50.038;20.000;2023-08-06T08:39:25;2.20;;;0.30;;
48897;SDS011;34713;50.038;20.000;2023-08-06T08:41:52;1.10;;;0.40;;
48897;SDS011;34713;50.038;20.000;2023-08-06T08:44:18;0.30;;;0.30;;
48897;SDS011;34713;50.038;20.000;2023-08-06T08:46:45;2.30;;;0.20;;
48897;SDS011;34713;50.038;20.000;2023-08-06T08:49:13;0.80;;;0.30;;
48897;SDS011;34713;50.038;20.000;2023-08-06T08:51:40;1.30;;;0.40;;
48897;SDS011;34713;50.038;20.000;2023-08-06T08:54:07;1.20;;;0.40;;
48897;SDS011;34713;50.038;20.000;2023-08-06T08:56:34;2.00;;;0.50;;
48897;SDS011;34713;50.038;20.000;2023-08-06T08:59:00;1.40;;;0.30;;
48897;SDS011;34713;50.038;20.000;2023-08-06T09:01:27;0.60;;;0.20;;
48897;SDS011;34713;50.038;20.000;2023-08-06T09:03:54;0.40;;;0.20;;
48897;SDS011;34713;50.038;20.000;2023-08-06T09:06:23;0.80;;;0.30;;
48897;SDS011;34713;50.038;20.000;2023-08-06T09:08:52;0.60;;;0.30;;
48897;SDS011;34713;50.038;20.000;2023-08-06T09:11:23;1.40;;;0.40;;
48897;SDS011;34713;50.038;20.000;2023-08-06T09:13:50;1.00;;;0.30;;
48897;SDS011;34713;50.038;20.000;2023-08-06T09:16:16;1.00;;;0.40;;
48897;SDS011;34713;50.038;20.000;2023-08-06T09:18:43;0.40;;;0.20;;
48897;SDS011;34713;50.038;20.000;2023-08-06T09:21:13;2.70;;;0.40;;
48897;SDS011;34713;50.038;20.000;2023-08-06T09:23:41;3.50;;;0.40;;
48897;SDS011;34713;50.038;20.000;2023-08-06T09:26:11;0.60;;;0.30;;
48897;SDS011;34713;50.038;20.000;2023-08-06T09:28:39;1.90;;;0.50;;
48897;SDS011;34713;50.038;20.000;2023-08-06T09:31:08;0.40;;;0.20;;
48897;SDS011;34713;50.038;20.000;2023-08-06T09:33:36;0.30;;;0.20;;
48897;SDS011;34713;50.038;20.000;2023-08-06T09:36:10;0.40;;;0.20;;
48897;SDS011;34713;50.038;20.000;2023-08-06T09:38:38;0.90;;;0.30;;
48897;SDS011;34713;50.038;20.000;2023-08-06T09:41:06;1.20;;;0.20;;
48897;SDS011;34713;50.038;20.000;2023-08-06T09:43:42;0.70;;;0.40;;
48897;SDS011;34713;50.038;20.000;2023-08-06T09:46:13;0.70;;;0.20;;
48897;SDS011;34713;50.038;20.000;2023-08-06T09:48:40;0.60;;;0.30;;
48897;SDS011;34713;50.038;20.000;2023-08-06T09:51:08;0.40;;;0.20;;
48897;SDS011;34713;50.038;20.000;2023-08-06T09:53:35;1.30;;;0.30;;
48897;SDS011;34713;50.038;20.000;2023-08-06T09:56:03;1.20;;;0.40;;
48897;SDS011;34713;50.038;20.000;2023-08-06T09:58:30;0.90;;;0.30;;
48897;SDS011;34713;50.038;20.000;2023-08-06T10:00:59;1.20;;;0.30;;
48897;SDS011;34713;50.038;20.000;2023-08-06T10:03:27;0.60;;;0.30;;
48897;SDS011;34713;50.038;20.000;2023-08-06T10:05:55;0.60;;;0.20;;
48897;SDS011;34713;50.038;20.000;2023-08-06T10:08:23;1.20;;;0.40;;
48897;SDS011;34713;50.038;20.000;2023-08-06T10:10:49;0.30;;;0.20;;
48897;SDS011;34713;50.038;20.000;2023-08-06T10:13:16;2.30;;;0.20;;
48897;SDS011;34713;50.038;20.000;2023-08-06T10:15:44;1.30;;;0.20;;
48897;SDS011;34713;50.038;20.000;2023-08-06T10:18:11;0.40;;;0.30;;
48897;SDS011;34713;50.038;20.000;2023-08-06T10:20:38;0.20;;;0.10;;
48897;SDS011;34713;50.038;20.000;2023-08-06T10:23:05;2.20;;;0.40;;
48897;SDS011;34713;50.038;20.000;2023-08-06T10:25:34;1.00;;;0.30;;
48897;SDS011;34713;50.038;20.000;2023-08-06T10:28:08;1.00;;;0.30;;
48897;SDS011;34713;50.038;20.000;2023-08-06T10:30:42;1.90;;;0.40;;
48897;SDS011;34713;50.038;20.000;2023-08-06T10:33:10;0.30;;;0.30;;
48897;SDS011;34713;50.038;20.000;2023-08-06T10:35:41;1.20;;;0.40;;
48897;SDS011;34713;50.038;20.000;2023-08-06T10:38:10;2.20;;;0.40;;
48897;SDS011;34713;50.038;20.000;2023-08-06T10:40:40;1.00;;;0.50;;
48897;SDS011;34713;50.038;20.000;2023-08-06T10:43:07;0.80;;;0.20;;
48897;SDS011;34713;50.038;20.000;2023-08-06T10:45:36;1.20;;;0.30;;
48897;SDS011;34713;50.038;20.000;2023-08-06T10:48:09;0.40;;;0.20;;
48897;SDS011;34713;50.038;20.000;2023-08-06T10:50:47;0.60;;;0.30;;
48897;SDS011;34713;50.038;20.000;2023-08-06T10:53:17;0.20;;;0.20;;
48897;SDS011;34713;50.038;20.000;2023-08-06T10:55:46;0.70;;;0.20;;
48897;SDS011;34713;50.038;20.000;2023-08-06T10:58:14;0.50;;;0.30;;
48897;SDS011;34713;50.038;20.000;2023-08-06T11:00:54;0.60;;;0.30;;
48897;SDS011;34713;50.038;20.000;2023-08-06T11:03:26;0.50;;;0.30;;
48897;SDS011;34713;50.038;20.000;2023-08-06T11:05:53;0.60;;;0.30;;
48897;SDS011;34713;50.038;20.000;2023-08-06T11:08:25;0.60;;;0.30;;
48897;SDS011;34713;50.038;20.000;2023-08-06T11:10:52;0.80;;;0.30;;
48897;SDS011;34713;50.038;20.000;2023-08-06T11:13:22;0.40;;;0.30;;
48897;SDS011;34713;50.038;20.000;2023-08-06T11:16:12;1.00;;;0.50;;
48897;SDS011;34713;50.038;20.000;2023-08-06T11:18:46;0.60;;;0.40;;
48897;SDS011;34713;50.038;20.000;2023-08-06T11:21:18;0.60;;;0.30;;
48897;SDS011;34713;50.038;20.000;2023-08-06T11:23:48;0.40;;;0.30;;
48897;SDS011;34713;50.038;20.000;2023-08-06T11:26:22;0.70;;;0.30;;
48897;SDS011;34713;50.038;20.000;2023-08-06T11:28:51;0.90;;;0.30;;
48897;SDS011;34713;50.038;20.000;2023-08-06T11:31:24;1.00;;;0.30;;
48897;SDS011;34713;50.038;20.000;2023-08-06T11:33:55;0.60;;;0.30;;
48897;SDS011;34713;50.038;20.000;2023-08-06T11:36:32;2.20;;;0.30;;
48897;SDS011;34713;50.038;20.000;2023-08-06T11:39:00;0.70;;;0.30;;
48897;SDS011;34713;50.038;20.000;2023-08-06T11:41:30;0.70;;;0.30;;
48897;SDS011;34713;50.038;20.000;2023-08-06T11:43:58;0.40;;;0.20;;
48897;SDS011;34713;50.038;20.000;2023-08-06T11:46:32;0.90;;;0.20;;
48897;SDS011;34713;50.038;20.000;2023-08-06T11:49:45;0.30;;;0.30;;
48897;SDS011;34713;50.038;20.000;2023-08-06T11:52:32;0.40;;;0.20;;
48897;SDS011;34713;50.038;20.000;2023-08-06T11:55:23;1.00;;;0.30;;
48897;SDS011;34713;50.038;20.000;2023-08-06T11:57:52;0.60;;;0.30;;
48897;SDS011;34713;50.038;20.000;2023-08-06T12:00:23;0.40;;;0.20;;
48897;SDS011;34713;50.038;20.000;2023-08-06T12:02:53;0.70;;;0.30;;
48897;SDS011;34713;50.038;20.000;2023-08-06T12:05:22;1.20;;;0.40;;
48897;SDS011;34713;50.038;20.000;2023-08-06T12:07:52;0.60;;;0.20;;
48897;SDS011;34713;50.038;20.000;2023-08-06T12:10:21;0.50;;;0.40;;
48897;SDS011;34713;50.038;20.000;2023-08-06T12:12:59;1.00;;;0.30;;
48897;SDS011;34713;50.038;20.000;2023-08-06T12:15:26;0.30;;;0.20;;
48897;SDS011;34713;50.038;20.000;2023-08-06T12:17:53;0.90;;;0.30;;
48897;SDS011;34713;50.038;20.000;2023-08-06T12:20:40;0.50;;;0.30;;
48897;SDS011;34713;50.038;20.000;2023-08-06T12:23:09;0.30;;;0.20;;
48897;SDS011;34713;50.038;20.000;2023-08-06T12:25:36;0.30;;;0.30;;
48897;SDS011;34713;50.038;20.000;2023-08-06T12:31:31;1.80;;;0.30;;
48897;SDS011;34713;50.038;20.000;2023-08-06T12:34:06;0.60;;;0.30;;
48897;SDS011;34713;50.038;20.000;2023-08-06T12:36:43;0.50;;;0.20;;
48897;SDS011;34713;50.038;20.000;2023-08-06T12:39:10;1.20;;;0.30;;
48897;SDS011;34713;50.038;20.000;2023-08-06T12:41:39;0.30;;;0.20;;
48897;SDS011;34713;50.038;20.000;2023-08-06T12:44:06;0.50;;;0.20;;
48897;SDS011;34713;50.038;20.000;2023-08-06T12:46:32;0.80;;;0.30;;
48897;SDS011;34713;50.038;20.000;2023-08-06T12:48:59;1.10;;;0.40;;
48897;SDS011;34713;50.038;20.000;2023-08-06T12:51:28;0.50;;;0.20;;
48897;SDS011;34713;50.038;20.000;2023-08-06T12:53:55;0.40;;;0.20;;
48897;SDS011;34713;50.038;20.000;2023-08-06T12:56:21;0.30;;;0.20;;
48897;SDS011;34713;50.038;20.000;2023-08-06T12:58:48;2.00;;;0.30;;
48897;SDS011;34713;50.038;20.000;2023-08-06T13:01:26;0.50;;;0.20;;
48897;SDS011;34713;50.038;20.000;2023-08-06T13:03:58;0.40;;;0.20;;
48897;SDS011;34713;50.038;20.000;2023-08-06T13:06:26;3.10;;;0.40;;
48897;SDS011;34713;50.038;20.000;2023-08-06T13:08:53;0.20;;;0.20;;
48897;SDS011;34713;50.038;20.000;2023-08-06T13:11:23;0.50;;;0.20;;
48897;SDS011;34713;50.038;20.000;2023-08-06T13:13:50;0.70;;;0.20;;
48897;SDS011;34713;50.038;20.000;2023-08-06T13:16:16;0.20;;;0.20;;
48897;SDS011;34713;50.038;20.000;2023-08-06T13:18:43;0.70;;;0.20;;
48897;SDS011;34713;50.038;20.000;2023-08-06T13:21:09;0.50;;;0.30;;
48897;SDS011;34713;50.038;20.000;2023-08-06T13:23:36;0.70;;;0.50;;
48897;SDS011;34713;50.038;20.000;2023-08-06T13:26:03;1.00;;;0.40;;
48897;SDS011;34713;50.038;20.000;2023-08-06T13:28:29;0.60;;;0.30;;
48897;SDS011;34713;50.038;20.000;2023-08-06T13:30:56;1.00;;;0.40;;
48897;SDS011;34713;50.038;20.000;2023-08-06T13:33:23;1.70;;;0.30;;
48897;SDS011;34713;50.038;20.000;2023-08-06T13:35:49;1.10;;;0.30;;
48897;SDS011;34713;50.038;20.000;2023-08-06T13:38:17;1.10;;;0.20;;
48897;SDS011;34713;50.038;20.000;2023-08-06T13:40:43;0.90;;;0.30;;
48897;SDS011;34713;50.038;20.000;2023-08-06T13:43:10;1.80;;;0.50;;
48897;SDS011;34713;50.038;20.000;2023-08-06T13:45:37;1.00;;;0.40;;
48897;SDS011;34713;50.038;20.000;2023-08-06T13:48:04;0.40;;;0.30;;
48897;SDS011;34713;50.038;20.000;2023-08-06T13:50:30;0.70;;;0.40;;
48897;SDS011;34713;50.038;20.000;2023-08-06T13:52:57;1.50;;;0.50;;
48897;SDS011;34713;50.038;20.000;2023-08-06T13:55:24;0.60;;;0.30;;
48897;SDS011;34713;50.038;20.000;2023-08-06T13:57:50;0.40;;;0.30;;
48897;SDS011;34713;50.038;20.000;2023-08-06T14:00:17;0.40;;;0.30;;
48897;SDS011;34713;50.038;20.000;2023-08-06T14:02:44;1.10;;;0.50;;
48897;SDS011;34713;50.038;20.000;2023-08-06T14:05:10;0.50;;;0.20;;
48897;SDS011;34713;50.038;20.000;2023-08-06T14:07:37;0.80;;;0.40;;
48897;SDS011;34713;50.038;20.000;2023-08-06T14:10:04;0.90;;;0.40;;
48897;SDS011;34713;50.038;20.000;2023-08-06T14:12:31;0.40;;;0.30;;
48897;SDS011;34713;50.038;20.000;2023-08-06T14:14:57;1.10;;;0.40;;
48897;SDS011;34713;50.038;20.000;2023-08-06T14:17:25;0.60;;;0.40;;
48897;SDS011;34713;50.038;20.000;2023-08-06T14:19:52;4.70;;;0.50;;
48897;SDS011;34713;50.038;20.000;2023-08-06T14:22:18;0.70;;;0.60;;
48897;SDS011;34713;50.038;20.000;2023-08-06T14:24:45;1.60;;;0.30;;
48897;SDS011;34713;50.038;20.000;2023-08-06T14:27:13;0.80;;;0.30;;
48897;SDS011;34713;50.038;20.000;2023-08-06T14:29:39;1.90;;;0.60;;
48897;SDS011;34713;50.038;20.000;2023-08-06T14:32:06;0.90;;;0.30;;
48897;SDS011;34713;50.038;20.000;2023-08-06T14:34:33;1.00;;;0.40;;
48897;SDS011;34713;50.038;20.000;2023-08-06T14:36:59;3.90;;;1.20;;
48897;SDS011;34713;50.038;20.000;2023-08-06T14:39:26;1.10;;;0.40;;
48897;SDS011;34713;50.038;20.000;2023-08-06T14:41:53;0.50;;;0.30;;
48897;SDS011;34713;50.038;20.000;2023-08-06T14:44:19;1.40;;;0.30;;
48897;SDS011;34713;50.038;20.000;2023-08-06T14:46:46;0.70;;;0.40;;
48897;SDS011;34713;50.038;20.000;2023-08-06T14:49:13;0.90;;;0.40;;
48897;SDS011;34713;50.038;20.000;2023-08-06T14:51:39;1.30;;;0.60;;
48897;SDS011;34713;50.038;20.000;2023-08-06T14:54:06;1.50;;;0.40;;
48897;SDS011;34713;50.038;20.000;2023-08-06T14:56:33;1.00;;;0.50;;
48897;SDS011;34713;50.038;20.000;2023-08-06T14:58:59;0.70;;;0.50;;
48897;SDS011;34713;50.038;20.000;2023-08-06T15:01:26;0.80;;;0.40;;
48897;SDS011;34713;50.038;20.000;2023-08-06T15:03:52;0.60;;;0.30;;
48897;SDS011;34713;50.038;20.000;2023-08-06T15:06:19;0.30;;;0.30;;
48897;SDS011;34713;50.038;20.000;2023-08-06T15:08:46;1.00;;;0.40;;
48897;SDS011;34713;50.038;20.000;2023-08-06T15:11:13;2.10;;;0.40;;
48897;SDS011;34713;50.038;20.000;2023-08-06T15:13:40;0.40;;;0.20;;
48897;SDS011;34713;50.038;20.000;2023-08-06T15:16:07;0.50;;;0.40;;
48897;SDS011;34713;50.038;20.000;2023-08-06T15:18:33;0.60;;;0.30;;
48897;SDS011;34713;50.038;20.000;2023-08-06T15:21:00;0.60;;;0.40;;
48897;SDS011;34713;50.038;20.000;2023-08-06T15:23:27;0.30;;;0.20;;
48897;SDS011;34713;50.038;20.000;2023-08-06T15:25:53;1.30;;;0.40;;
48897;SDS011;34713;50.038;20.000;2023-08-06T15:28:20;0.30;;;0.20;;
48897;SDS011;34713;50.038;20.000;2023-08-06T15:30:50;0.40;;;0.30;;
48897;SDS011;34713;50.038;20.000;2023-08-06T15:33:18;0.20;;;0.20;;
48897;SDS011;34713;50.038;20.000;2023-08-06T15:35:45;0.30;;;0.20;;
48897;SDS011;34713;50.038;20.000;2023-08-06T15:38:12;0.90;;;0.40;;
48897;SDS011;34713;50.038;20.000;2023-08-06T15:40:38;0.40;;;0.30;;
48897;SDS011;34713;50.038;20.000;2023-08-06T15:43:05;0.80;;;0.50;;
48897;SDS011;34713;50.038;20.000;2023-08-06T15:45:32;0.60;;;0.30;;
48897;SDS011;34713;50.038;20.000;2023-08-06T15:47:59;0.50;;;0.20;;
48897;SDS011;34713;50.038;20.000;2023-08-06T15:50:26;0.50;;;0.30;;
48897;SDS011;34713;50.038;20.000;2023-08-06T15:52:52;1.30;;;0.30;;
48897;SDS011;34713;50.038;20.000;2023-08-06T15:55:19;0.60;;;0.40;;
48897;SDS011;34713;50.038;20.000;2023-08-06T15:57:46;0.70;;;0.30;;
48897;SDS011;34713;50.038;20.000;2023-08-06T16:00:12;0.40;;;0.30;;
48897;SDS011;34713;50.038;20.000;2023-08-06T16:02:39;0.20;;;0.20;;
48897;SDS011;34713;50.038;20.000;2023-08-06T16:05:06;0.30;;;0.20;;
48897;SDS011;34713;50.038;20.000;2023-08-06T16:07:32;0.50;;;0.30;;
48897;SDS011;34713;50.038;20.000;2023-08-06T16:10:01;0.70;;;0.30;;
48897;SDS011;34713;50.038;20.000;2023-08-06T16:12:27;0.60;;;0.30;;
48897;SDS011;34713;50.038;20.000;2023-08-06T16:14:54;0.20;;;0.20;;
48897;SDS011;34713;50.038;20.000;2023-08-06T16:17:21;0.40;;;0.20;;
48897;SDS011;34713;50.038;20.000;2023-08-06T16:19:47;0.30;;;0.30;;
48897;SDS011;34713;50.038;20.000;2023-08-06T16:22:15;0.80;;;0.30;;